createdAt,value
2018-03-17T00:00:40.196Z,7.40
2018-03-17T00:03:07.298Z,7.30
2018-03-17T00:05:33.692Z,7.30
2018-03-17T00:08:00.087Z,7.40
2018-03-17T00:10:26.475Z,7.40
2018-03-17T00:12:52.873Z,7.40
2018-03-17T00:15:20.000Z,6.00
2018-03-17T00:17:47.901Z,5.80
2018-03-17T00:20:14.302Z,5.80
2018-03-17T00:22:42.171Z,5.20
2018-03-17T00:25:08.543Z,5.20
2018-03-17T00:27:34.937Z,5.10
2018-03-17T00:30:02.984Z,5.00
2018-03-17T00:32:29.351Z,5.00
2018-03-17T00:34:56.487Z,4.70
2018-03-17T00:37:23.625Z,4.70
2018-03-17T00:39:49.987Z,4.60
2018-03-17T00:42:16.376Z,4.50
2018-03-17T00:44:42.781Z,4.40
2018-03-17T00:47:09.155Z,4.20
2018-03-17T00:49:37.094Z,4.20
2018-03-17T00:52:03.515Z,4.20
2018-03-17T00:54:29.887Z,4.20
2018-03-17T00:56:56.280Z,4.00
2018-03-17T00:59:22.657Z,3.90
2018-03-17T01:01:49.093Z,3.90
2018-03-17T01:04:16.248Z,3.90
2018-03-17T01:06:43.401Z,3.70
2018-03-17T01:09:09.815Z,3.70
2018-03-17T01:11:36.211Z,3.50
2018-03-17T01:14:02.676Z,3.20
2018-03-17T01:16:29.080Z,2.90
2018-03-17T01:18:55.473Z,2.70
2018-03-17T01:21:22.000Z,2.50
2018-03-17T01:23:48.400Z,2.60
2018-03-17T01:26:14.782Z,2.70
2018-03-17T01:28:41.201Z,2.90
2018-03-17T01:31:07.806Z,2.90
2018-03-17T01:33:34.188Z,3.00
2018-03-17T01:36:00.587Z,2.90
2018-03-17T01:38:27.720Z,3.00
2018-03-17T01:40:54.127Z,3.00
2018-03-17T01:43:20.578Z,3.00
2018-03-17T01:45:46.958Z,2.90
2018-03-17T01:48:13.350Z,3.10
2018-03-17T01:50:41.240Z,3.00
2018-03-17T01:53:08.543Z,2.90
2018-03-17T01:55:34.923Z,2.80
2018-03-17T01:58:02.073Z,2.60
2018-03-17T02:00:29.353Z,2.90
2018-03-17T02:02:55.758Z,2.80
2018-03-17T02:05:22.889Z,2.50
2018-03-17T02:07:49.291Z,2.50
2018-03-17T02:10:15.692Z,2.50
2018-03-17T02:12:42.089Z,2.30
2018-03-17T02:15:08.487Z,2.40
2018-03-17T02:17:34.885Z,2.30
2018-03-17T02:20:01.276Z,2.30
2018-03-17T02:22:27.663Z,2.40
2018-03-17T02:24:54.028Z,2.00
2018-03-17T02:27:20.444Z,2.10
2018-03-17T02:29:46.844Z,1.80
2018-03-17T02:32:13.240Z,1.90
2018-03-17T02:34:39.665Z,1.70
2018-03-17T02:37:06.067Z,1.40
2018-03-17T02:39:32.439Z,1.30
2018-03-17T02:41:58.816Z,1.30
2018-03-17T02:44:25.207Z,1.20
2018-03-17T02:46:52.354Z,1.10
2018-03-17T02:49:18.749Z,1.10
2018-03-17T02:51:45.171Z,0.90
2018-03-17T02:54:11.551Z,0.90
2018-03-17T02:56:37.946Z,0.90
2018-03-17T02:59:04.375Z,0.60
2018-03-17T03:01:30.886Z,0.50
2018-03-17T03:03:57.293Z,0.40
2018-03-17T03:06:24.429Z,0.40
2018-03-17T03:08:50.817Z,0.30
2018-03-17T03:11:17.213Z,0.30
2018-03-17T03:13:44.327Z,0.20
2018-03-17T03:16:10.710Z,0.20
2018-03-17T03:18:37.109Z,0.30
2018-03-17T03:21:04.245Z,0.20
2018-03-17T03:23:30.654Z,0.20
2018-03-17T03:25:57.056Z,0.30
2018-03-17T03:28:23.495Z,0.20
2018-03-17T03:30:49.891Z,0.10
2018-03-17T03:33:16.358Z,0.10
2018-03-17T03:35:42.688Z,0.10
2018-03-17T03:38:09.074Z,0.10
2018-03-17T03:40:35.463Z,-0.10
2018-03-17T03:43:01.847Z,-0.10
2018-03-17T03:45:28.966Z,0.00
2018-03-17T03:47:55.335Z,0.00
2018-03-17T03:50:22.472Z,-0.10
2018-03-17T03:52:48.889Z,-0.10
2018-03-17T03:55:15.267Z,0.00
2018-03-17T03:57:42.374Z,0.00
2018-03-17T04:00:09.525Z,0.10
2018-03-17T04:02:35.933Z,0.10
2018-03-17T04:05:02.339Z,-0.10
2018-03-17T04:07:28.804Z,-0.30
2018-03-17T04:09:55.221Z,-0.30
2018-03-17T04:12:21.595Z,-0.20
2018-03-17T04:14:47.975Z,-0.30
2018-03-17T04:17:14.367Z,-0.30
2018-03-17T04:19:40.751Z,-0.30
2018-03-17T04:22:07.183Z,-0.30
2018-03-17T04:24:34.415Z,-0.50
2018-03-17T04:27:00.791Z,-0.50
2018-03-17T04:29:27.207Z,-0.40
2018-03-17T04:31:53.570Z,-0.40
2018-03-17T04:34:20.178Z,-0.40
2018-03-17T04:36:46.570Z,-0.40
2018-03-17T04:39:12.944Z,-0.40
2018-03-17T04:41:39.338Z,-0.30
2018-03-17T04:44:06.454Z,-0.40
2018-03-17T04:46:33.596Z,-0.20
2018-03-17T04:48:59.968Z,-0.20
2018-03-17T04:51:26.362Z,-0.50
2018-03-17T04:53:53.489Z,-0.50
2018-03-17T04:56:19.929Z,-0.50
2018-03-17T04:58:46.340Z,-0.60
2018-03-17T05:01:12.760Z,-0.50
2018-03-17T05:03:39.185Z,-0.40
2018-03-17T05:06:05.622Z,-0.60
2018-03-17T05:08:32.015Z,-0.60
2018-03-17T05:11:00.376Z,-0.50
2018-03-17T05:13:26.768Z,-0.50
2018-03-17T05:15:53.328Z,-0.60
2018-03-17T05:18:19.739Z,-0.60
2018-03-17T05:20:46.123Z,-0.60
2018-03-17T05:23:12.520Z,-0.70
2018-03-17T05:25:38.969Z,-0.50
2018-03-17T05:28:05.364Z,-0.70
2018-03-17T05:30:31.751Z,-0.80
2018-03-17T05:32:58.143Z,-0.80
2018-03-17T05:35:24.681Z,-0.80
2018-03-17T05:37:51.110Z,-0.80
2018-03-17T05:40:17.634Z,-0.80
2018-03-17T05:42:44.020Z,-0.60
2018-03-17T05:45:11.202Z,-0.70
2018-03-17T05:47:37.607Z,-0.70
2018-03-17T05:50:04.732Z,-0.70
2018-03-17T05:52:31.115Z,-0.70
2018-03-17T05:54:57.512Z,-0.90
2018-03-17T05:57:23.981Z,-0.90
2018-03-17T05:59:50.371Z,-0.70
2018-03-17T06:02:16.760Z,-0.90
2018-03-17T06:04:43.180Z,-0.80
2018-03-17T06:07:09.587Z,-0.80
2018-03-17T06:09:36.712Z,-0.50
2018-03-17T06:12:03.132Z,-0.50
2018-03-17T06:14:29.535Z,-0.60
2018-03-17T06:16:55.964Z,-0.70
2018-03-17T06:19:22.361Z,-0.60
2018-03-17T06:21:49.489Z,-0.90
2018-03-17T06:24:16.635Z,-0.90
2018-03-17T06:26:43.044Z,-1.00
2018-03-17T06:29:10.237Z,-0.80
2018-03-17T06:31:36.639Z,-0.80
2018-03-17T06:34:03.044Z,-0.70
2018-03-17T06:36:29.448Z,-0.90
2018-03-17T06:38:55.962Z,-0.90
2018-03-17T06:41:23.115Z,-0.90
2018-03-17T06:43:50.235Z,-1.00
2018-03-17T06:46:16.717Z,-1.10
2018-03-17T06:48:43.246Z,-1.00
2018-03-17T06:51:10.376Z,-1.10
2018-03-17T06:53:36.752Z,-1.10
2018-03-17T06:56:03.182Z,-1.00
2018-03-17T06:58:29.571Z,-0.90
2018-03-17T07:00:56.724Z,-0.80
2018-03-17T07:03:23.878Z,-1.00
2018-03-17T07:05:50.424Z,-1.00
2018-03-17T07:08:17.532Z,-1.10
2018-03-17T07:10:43.940Z,-1.10
2018-03-17T07:13:10.408Z,-1.10
2018-03-17T07:15:36.796Z,-1.20
2018-03-17T07:18:03.238Z,-1.20
2018-03-17T07:20:29.649Z,-1.20
2018-03-17T07:22:56.040Z,-1.10
2018-03-17T07:25:22.467Z,-1.20
2018-03-17T07:27:48.864Z,-1.20
2018-03-17T07:30:15.323Z,-1.20
2018-03-17T07:32:41.749Z,-1.30
2018-03-17T07:35:08.161Z,-1.20
2018-03-17T07:37:34.586Z,-1.20
2018-03-17T07:40:00.997Z,-1.10
2018-03-17T07:42:28.229Z,-1.20
2018-03-17T07:44:55.409Z,-1.20
2018-03-17T07:47:21.827Z,-1.30
2018-03-17T07:49:49.014Z,-1.40
2018-03-17T07:52:15.395Z,-1.40
2018-03-17T07:54:41.808Z,-1.20
2018-03-17T07:57:08.213Z,-1.30
2018-03-17T07:59:34.610Z,-1.40
2018-03-17T08:02:02.767Z,-1.30
2018-03-17T08:04:29.210Z,-1.30
2018-03-17T08:06:55.686Z,-1.10
2018-03-17T08:09:22.082Z,-1.20
2018-03-17T08:11:49.215Z,-1.30
2018-03-17T08:14:15.600Z,-1.30
2018-03-17T08:16:42.001Z,-1.20
2018-03-17T08:19:09.419Z,-1.30
2018-03-17T08:21:35.812Z,-1.40
2018-03-17T08:24:02.203Z,-1.20
2018-03-17T08:26:29.361Z,-1.00
2018-03-17T08:28:56.472Z,-0.90
2018-03-17T08:31:22.868Z,-0.90
2018-03-17T08:33:49.356Z,-1.10
2018-03-17T08:36:15.759Z,-1.10
2018-03-17T08:38:42.159Z,-1.30
2018-03-17T08:41:08.576Z,-1.20
2018-03-17T08:43:35.714Z,-1.30
2018-03-17T08:46:02.104Z,-1.30
2018-03-17T08:48:28.515Z,-1.00
2018-03-17T08:50:54.917Z,-0.70
2018-03-17T08:53:22.037Z,-0.60
2018-03-17T08:55:48.417Z,-0.60
2018-03-17T08:58:14.815Z,-0.60
2018-03-17T09:00:41.217Z,-0.40
2018-03-17T09:03:07.632Z,-0.40
2018-03-17T09:05:34.086Z,-0.10
2018-03-17T09:08:00.480Z,0.00
2018-03-17T09:10:27.624Z,-0.30
2018-03-17T09:12:54.047Z,-0.30
2018-03-17T09:15:22.148Z,-0.50
2018-03-17T09:17:48.541Z,-0.50
2018-03-17T09:20:15.678Z,-0.50
2018-03-17T09:22:42.051Z,-0.50
2018-03-17T09:25:08.450Z,-0.30
2018-03-17T09:27:35.592Z,0.20
2018-03-17T09:30:03.514Z,-0.40
2018-03-17T09:32:29.894Z,-0.40
2018-03-17T09:34:57.021Z,-0.20
2018-03-17T09:37:23.469Z,-0.20
2018-03-17T09:39:49.864Z,-0.30
2018-03-17T09:42:16.262Z,-0.50
2018-03-17T09:44:43.432Z,-0.60
2018-03-17T09:47:09.861Z,-0.60
2018-03-17T09:49:36.270Z,-0.40
2018-03-17T09:52:03.413Z,-0.20
2018-03-17T09:54:30.568Z,-0.20
2018-03-17T09:56:57.677Z,0.10
2018-03-17T09:59:24.067Z,0.10
2018-03-17T10:01:50.481Z,0.10
2018-03-17T10:04:17.603Z,0.10
2018-03-17T10:06:44.068Z,0.00
2018-03-17T10:09:11.226Z,0.20
2018-03-17T10:11:37.628Z,0.20
2018-03-17T10:14:04.027Z,0.20
2018-03-17T10:16:30.437Z,0.30
2018-03-17T10:18:56.840Z,0.50
2018-03-17T10:21:23.980Z,0.50
2018-03-17T10:23:50.363Z,0.50
2018-03-17T10:26:16.780Z,0.50
2018-03-17T10:28:43.162Z,0.70
2018-03-17T10:31:09.567Z,0.50
2018-03-17T10:33:35.939Z,0.60
2018-03-17T10:36:03.143Z,0.10
2018-03-17T10:38:30.241Z,0.00
2018-03-17T10:40:56.645Z,0.10
2018-03-17T10:43:23.081Z,-0.30
2018-03-17T10:45:49.457Z,-0.10
2018-03-17T10:48:15.921Z,-0.10
2018-03-17T10:50:42.377Z,-0.20
2018-03-17T10:53:08.781Z,-0.70
2018-03-17T10:55:35.202Z,-0.50
2018-03-17T10:58:01.600Z,-0.30
2018-03-17T11:00:28.789Z,-0.30
2018-03-17T11:02:55.222Z,-0.40
2018-03-17T11:05:21.651Z,-0.50
2018-03-17T11:07:48.036Z,-0.60
2018-03-17T11:10:14.458Z,-0.40
2018-03-17T11:12:40.924Z,-0.40
2018-03-17T11:15:08.070Z,-0.30
2018-03-17T11:17:35.220Z,-0.40
2018-03-17T11:20:02.405Z,-0.10
2018-03-17T11:22:28.798Z,-0.10
2018-03-17T11:24:55.188Z,0.10
2018-03-17T11:27:21.597Z,0.00
2018-03-17T11:29:48.001Z,-0.10
2018-03-17T11:32:15.128Z,-0.10
2018-03-17T11:34:41.542Z,-0.10
2018-03-17T11:37:07.942Z,-0.20
2018-03-17T11:39:34.340Z,0.00
2018-03-17T11:42:01.515Z,0.20
2018-03-17T11:44:27.947Z,0.20
2018-03-17T11:46:54.458Z,0.30
2018-03-17T11:49:21.586Z,0.00
2018-03-17T11:51:49.472Z,-0.10
2018-03-17T11:54:17.068Z,-0.10
2018-03-17T11:56:43.493Z,-0.10
2018-03-17T11:59:09.876Z,-0.30
2018-03-17T12:01:36.247Z,-0.10
2018-03-17T12:04:02.698Z,0.00
2018-03-17T12:06:29.084Z,0.00
2018-03-17T12:08:55.525Z,0.20
2018-03-17T12:11:22.714Z,0.20
2018-03-17T12:13:49.355Z,0.20
2018-03-17T12:16:15.819Z,0.30
2018-03-17T12:18:43.100Z,0.10
2018-03-17T12:21:10.303Z,0.10
2018-03-17T12:23:36.683Z,0.10
2018-03-17T12:26:03.899Z,0.00
2018-03-17T12:28:30.338Z,0.00
2018-03-17T12:30:56.764Z,0.00
2018-03-17T12:33:23.958Z,-0.10
2018-03-17T12:35:51.095Z,0.00
2018-03-17T12:38:18.272Z,-0.20
2018-03-17T12:40:44.675Z,-0.20
2018-03-17T12:43:11.835Z,-0.10
2018-03-17T12:45:39.016Z,-0.40
2018-03-17T12:48:05.429Z,-0.40
2018-03-17T12:50:32.571Z,0.00
2018-03-17T12:52:58.939Z,-0.10
2018-03-17T12:55:25.322Z,-0.30
2018-03-17T12:57:51.722Z,-0.50
2018-03-17T13:00:18.140Z,-0.50
2018-03-17T13:02:44.606Z,-0.50
2018-03-17T13:05:11.319Z,-0.70
2018-03-17T13:07:37.728Z,-0.80
2018-03-17T13:10:04.139Z,-0.80
2018-03-17T13:12:31.280Z,-0.20
2018-03-17T13:14:57.777Z,-0.20
2018-03-17T13:17:24.208Z,-0.30
2018-03-17T13:19:50.630Z,-0.60
2018-03-17T13:22:17.049Z,-0.80
2018-03-17T13:24:44.323Z,-0.90
2018-03-17T13:27:23.047Z,-0.60
2018-03-17T13:29:49.437Z,-0.30
2018-03-17T13:32:28.047Z,0.00
2018-03-17T13:34:54.465Z,-0.10
2018-03-17T13:37:33.088Z,0.10
2018-03-17T13:40:00.208Z,0.00
2018-03-17T13:42:26.606Z,-0.10
2018-03-17T13:44:53.033Z,0.00
2018-03-17T13:47:19.429Z,-0.10
2018-03-17T13:49:45.829Z,-0.20
2018-03-17T13:52:12.202Z,-0.30
2018-03-17T13:54:39.333Z,-0.30
2018-03-17T13:57:07.425Z,-0.30
2018-03-17T13:59:35.000Z,-0.20
2018-03-17T14:02:01.402Z,-0.20
2018-03-17T14:04:27.999Z,-0.30
2018-03-17T14:06:54.431Z,-0.40
2018-03-17T14:09:20.803Z,-0.20
2018-03-17T14:11:47.989Z,-0.30
2018-03-17T14:14:14.461Z,-0.30
2018-03-17T14:16:40.860Z,-0.40
2018-03-17T14:19:07.313Z,-0.30
2018-03-17T14:21:33.720Z,-0.10
2018-03-17T14:24:00.106Z,0.00
2018-03-17T14:26:26.632Z,-0.10
2018-03-17T14:28:53.020Z,-0.20
2018-03-17T14:31:19.418Z,-0.30
2018-03-17T14:33:46.625Z,-0.60
2018-03-17T14:36:13.018Z,-0.60
2018-03-17T14:38:40.191Z,-1.00
2018-03-17T14:41:06.650Z,-1.00
2018-03-17T14:43:33.024Z,-1.40
2018-03-17T14:46:00.163Z,-1.40
2018-03-17T14:48:26.561Z,-1.40
2018-03-17T14:50:52.939Z,-1.30
2018-03-17T14:53:20.059Z,-1.70
2018-03-17T14:55:46.453Z,-1.70
2018-03-17T14:58:12.847Z,-1.40
2018-03-17T15:00:39.972Z,-1.10
2018-03-17T15:03:06.354Z,-1.20
2018-03-17T15:05:32.760Z,-1.20
2018-03-17T15:07:59.934Z,-1.20
2018-03-17T15:10:26.354Z,-1.20
2018-03-17T15:12:52.730Z,-1.20
2018-03-17T15:15:19.132Z,-1.00
2018-03-17T15:17:45.569Z,-0.90
2018-03-17T15:20:11.964Z,-0.80
2018-03-17T15:22:39.077Z,-1.40
2018-03-17T15:25:05.567Z,-1.50
2018-03-17T15:27:31.985Z,-1.50
2018-03-17T15:29:58.369Z,-1.40
2018-03-17T15:32:24.779Z,-1.30
2018-03-17T15:34:51.462Z,-1.40
2018-03-17T15:37:17.872Z,-1.40
2018-03-17T15:39:44.282Z,-1.60
2018-03-17T15:42:10.729Z,-1.80
2018-03-17T15:44:37.126Z,-2.00
2018-03-17T15:47:04.246Z,-2.30
2018-03-17T15:49:30.631Z,-2.30
2018-03-17T15:51:57.026Z,-2.40
2018-03-17T15:54:24.177Z,-1.90
2018-03-17T15:56:51.325Z,-2.00
2018-03-17T15:59:18.521Z,-1.90
2018-03-17T16:01:44.907Z,-1.90
2018-03-17T16:04:11.320Z,-1.90
2018-03-17T16:06:37.749Z,-1.60
2018-03-17T16:09:05.610Z,-1.70
2018-03-17T16:11:31.996Z,-1.70
2018-03-17T16:13:58.449Z,-1.60
2018-03-17T16:16:24.846Z,-1.70
2018-03-17T16:18:51.984Z,-1.90
2018-03-17T16:21:19.166Z,-2.00
2018-03-17T16:23:45.747Z,-2.00
2018-03-17T16:26:12.383Z,-2.30
2018-03-17T16:28:38.798Z,-2.40
2018-03-17T16:31:05.199Z,-2.20
2018-03-17T16:33:31.581Z,-2.10
2018-03-17T16:35:58.043Z,-2.00
2018-03-17T16:38:25.191Z,-2.20
2018-03-17T16:40:52.387Z,-2.40
2018-03-17T16:43:18.807Z,-2.50
2018-03-17T16:45:45.256Z,-2.50
2018-03-17T16:48:11.654Z,-2.40
2018-03-17T16:50:38.052Z,-2.00
2018-03-17T16:53:04.457Z,-2.10
2018-03-17T16:55:30.883Z,-2.10
2018-03-17T16:57:57.282Z,-2.10
2018-03-17T17:00:24.447Z,-2.10
2018-03-17T17:02:50.913Z,-2.20
2018-03-17T17:05:17.274Z,-2.20
2018-03-17T17:07:43.674Z,-2.30
2018-03-17T17:10:10.076Z,-2.50
2018-03-17T17:12:36.497Z,-2.30
2018-03-17T17:15:03.042Z,-2.30
2018-03-17T17:17:29.483Z,-2.40
2018-03-17T17:19:55.910Z,-2.40
2018-03-17T17:22:22.319Z,-2.40
2018-03-17T17:24:49.521Z,-2.30
2018-03-17T17:27:15.957Z,-2.30
2018-03-17T17:29:42.409Z,-1.90
2018-03-17T17:32:08.833Z,-2.10
2018-03-17T17:34:35.236Z,-2.00
2018-03-17T17:37:01.625Z,-2.40
2018-03-17T17:39:28.028Z,-2.50
2018-03-17T17:41:54.496Z,-2.50
2018-03-17T17:44:21.678Z,-2.60
2018-03-17T17:46:48.154Z,-2.60
2018-03-17T17:49:16.024Z,-2.50
2018-03-17T17:51:42.416Z,-2.50
2018-03-17T17:54:08.810Z,-2.60
2018-03-17T17:56:35.969Z,-2.80
2018-03-17T17:59:03.105Z,-2.90
2018-03-17T18:01:30.268Z,-3.00
2018-03-17T18:03:56.660Z,-3.10
2018-03-17T18:06:23.050Z,-3.00
2018-03-17T18:08:49.447Z,-2.80
2018-03-17T18:11:16.589Z,-2.90
2018-03-17T18:13:42.976Z,-2.90
2018-03-17T18:16:09.366Z,-2.90
2018-03-17T18:18:36.502Z,-3.00
2018-03-17T18:21:02.906Z,-3.00
2018-03-17T18:23:29.306Z,-3.20
2018-03-17T18:25:55.677Z,-3.20
2018-03-17T18:28:22.053Z,-3.20
2018-03-17T18:30:49.173Z,-3.20
2018-03-17T18:33:15.561Z,-3.20
2018-03-17T18:35:41.947Z,-3.10
2018-03-17T18:38:08.315Z,-3.00
2018-03-17T18:40:34.713Z,-2.80
2018-03-17T18:43:01.897Z,-3.30
2018-03-17T18:45:28.296Z,-3.30
2018-03-17T18:47:55.522Z,-3.50
2018-03-17T18:50:21.947Z,-3.60
2018-03-17T18:52:48.323Z,-3.70
2018-03-17T18:55:15.439Z,-3.50
2018-03-17T18:57:41.827Z,-3.50
2018-03-17T19:00:08.264Z,-3.50
2018-03-17T19:02:34.663Z,-3.50
2018-03-17T19:05:01.817Z,-3.30
2018-03-17T19:07:28.947Z,-3.50
2018-03-17T19:09:55.326Z,-3.50
2018-03-17T19:12:21.728Z,-3.70
2018-03-17T19:14:48.876Z,-3.80
2018-03-17T19:17:16.330Z,-3.80
2018-03-17T19:19:43.663Z,-3.90
2018-03-17T19:22:10.080Z,-3.90
2018-03-17T19:24:36.474Z,-3.80
2018-03-17T19:27:02.900Z,-3.70
2018-03-17T19:29:29.291Z,-3.60
2018-03-17T19:31:55.680Z,-3.60
2018-03-17T19:34:22.091Z,-3.60
2018-03-17T19:36:48.467Z,-3.60
2018-03-17T19:39:14.847Z,-3.60
2018-03-17T19:41:42.021Z,-3.70
2018-03-17T19:44:08.508Z,-3.70
2018-03-17T19:46:34.874Z,-3.60
2018-03-17T19:49:01.321Z,-3.40
2018-03-17T19:51:27.749Z,-3.20
2018-03-17T19:53:54.222Z,-3.20
2018-03-17T19:56:20.644Z,-3.50
2018-03-17T19:58:47.023Z,-3.80
2018-03-17T20:01:14.145Z,-4.10
2018-03-17T20:03:42.012Z,-4.10
2018-03-17T20:06:09.196Z,-4.10
2018-03-17T20:08:35.602Z,-4.10
2018-03-17T20:11:02.024Z,-3.90
2018-03-17T20:13:28.430Z,-3.90
2018-03-17T20:15:54.849Z,-3.70
2018-03-17T20:18:21.254Z,-3.80
2018-03-17T20:20:48.406Z,-3.80
2018-03-17T20:23:14.818Z,-3.90
2018-03-17T20:25:42.002Z,-3.90
2018-03-17T20:28:08.385Z,-3.90
2018-03-17T20:30:34.780Z,-4.10
2018-03-17T20:33:01.181Z,-4.10
2018-03-17T20:35:28.300Z,-4.00
2018-03-17T21:37:02.616Z,-5.60
2018-03-17T21:39:29.768Z,-5.20
2018-03-17T21:41:56.879Z,-5.00
2018-03-17T21:44:23.285Z,-5.00
2018-03-17T21:46:49.709Z,-4.80
2018-03-17T21:49:16.912Z,-4.60
2018-03-17T21:51:43.337Z,-4.60
2018-03-17T21:54:09.741Z,-4.60
2018-03-17T21:56:36.166Z,-4.70
2018-03-17T21:59:03.462Z,-4.60
2018-03-17T22:01:29.897Z,-4.40
2018-03-17T22:03:56.316Z,-4.40
2018-03-17T22:06:22.760Z,-4.50
2018-03-17T22:08:49.160Z,-4.30
2018-03-17T22:11:15.575Z,-4.30
2018-03-17T22:13:41.944Z,-4.50
2018-03-17T22:16:08.487Z,-4.40
2018-03-17T22:18:34.873Z,-4.30
2018-03-17T22:21:01.341Z,-4.40
2018-03-17T22:23:27.719Z,-4.50
2018-03-17T22:25:54.905Z,-4.40
2018-03-17T22:28:21.346Z,-4.50
2018-03-17T22:30:47.778Z,-4.50
2018-03-17T22:33:14.170Z,-4.40
2018-03-17T22:35:41.287Z,-5.00
2018-03-17T22:38:07.663Z,-5.00
2018-03-17T22:40:34.824Z,-5.00
2018-03-17T22:43:01.218Z,-5.00
2018-03-17T22:45:27.623Z,-4.90
2018-03-17T22:47:54.033Z,-4.90
2018-03-17T22:50:20.425Z,-4.80
2018-03-17T22:52:47.299Z,-4.80
2018-03-17T22:55:13.687Z,-4.80
2018-03-17T22:57:40.064Z,-4.80
2018-03-17T23:00:06.506Z,-4.70
2018-03-17T23:02:32.885Z,-4.40
2018-03-17T23:05:00.007Z,-4.80
2018-03-17T23:07:26.375Z,-4.80
2018-03-17T23:09:53.497Z,-4.80
2018-03-17T23:12:19.888Z,-4.80
2018-03-17T23:14:46.268Z,-4.80
2018-03-17T23:17:12.639Z,-4.90
2018-03-17T23:19:39.048Z,-4.90
2018-03-17T23:22:06.173Z,-5.00
2018-03-17T23:24:32.562Z,-5.00
2018-03-17T23:26:58.961Z,-4.90
2018-03-17T23:29:26.110Z,-5.00
2018-03-17T23:31:53.271Z,-4.70
2018-03-17T23:34:20.405Z,-4.60
2018-03-17T23:36:46.831Z,-4.60
2018-03-17T23:39:13.241Z,-4.70
2018-03-17T23:41:39.730Z,-4.80
2018-03-17T23:44:06.144Z,-4.60
2018-03-17T23:46:33.314Z,-4.60
2018-03-17T23:48:59.751Z,-4.60
2018-03-17T23:51:26.207Z,-4.40
2018-03-17T23:53:52.627Z,-4.20
2018-03-17T23:56:19.045Z,-3.90
2018-03-17T23:58:45.481Z,-4.20
